ENRO

Details ICAO ENRO (RRS)
Name ROROS
Region Norway
Timezone Europe/Oslo (UTC+1.0)
Plans Departing 14
Arriving 12
Stats Elevation 2,054 ft / 626 m (AMSL)
Location 62.579144° 11.344735°
Runways 1
Magnetic Variation 3.636° E
Sunrise 2017-12-15 08:41:39 UTC / 2017-12-15 09:41:39 Local
Sunset 2017-12-15 13:40:39 UTC / 2017-12-15 14:40:39 Local
Advertisement - Login to hide

Runways

ID Width Length Bearing (true) Bearing (mag) Surface Threshold Offset Overrun Length
14 131 ft / 40 m 5,628 ft / 1,715 m 136.11° 132.47° Asphalt 0 ft / 0 m 0 ft / 0 m
32 131 ft / 40 m 5,628 ft / 1,715 m 316.13° 312.49° Asphalt 0 ft / 0 m 0 ft / 0 m

Approach Navaids

Runway Type Ident Frequency Range Bearing (true) Bearing (mag) Slope Elevation
32 Localiser RO 108.70 MHz 18 nm / 33 km 307.12° 303.48° - 2,075 ft / 632 m (AMSL)
32 Glidescope RO 108.70 MHz 10 nm / 19 km 307.12° 303.48° 3.30° 2,054 ft / 626 m (AMSL)
32 DME RO 108.70 MHz 18 nm / 33 km - - - 2,054 ft / 626 m (AMSL)

Map

Weather


0- 5 10 15 20 25 30 35+ Temperature / ° C

Clouds and Precipitation
Forecast for 2017-12-15 06:00 UTC. Updated an hour ago

Ground ~20,000 ft ~40,000 ft Winds

METAR

ENRO 150620Z 34004KT 310V010 9999 BKN006 M08/M08 Q0987

TAF

Not found

Frequencies

Tower 120.40 MHz TWR
Warning: Do not use this data for real-world aviation or navigation. No guarantee of current accuracy is given.